Wednesday, January 28, 2015
09:10 UTC
  |  Log In   |  Register Free
Airport Search:

Clinton-Sampson County Airport
(KCTZ)

Clinton-Sampson County Airport Diagram
No Airport Diagram Available

FAA data valid effective January 08, 2015 - March 05, 2015 (unless otherwise noted).

 
 
 
 
 
 
 
 
 
 
 
 
 
 

Current Aviation Weather for Clinton-Sampson County Airport (KCTZ)

The most recent METAR observation for KCTZ was updated at: 0908
METAR Summary (Translated METAR)
KCTZ
280855Z AUTO 33005KT 10SM CLR M01/M08 A3007 RMK AO2 T10111076
KDPL
280855Z AUTO 32004KT 10SM CLR M01/M08 A3006 RMK AO2 T10141082
(18.9 nm NE from KCTZ)
KEYF
280755Z AUTO 34003KT 10SM CLR M01/M09 A3005 RMK AO2 T10061091
(24.8 nm SW from KCTZ)
TAF
No TAF information found within 50 nm of KCTZ
  Airport Weather Conditions for KCTZ

 Current Weather at CTZ
32° F
Partly Cloudy
North winds at 6.9 mph
CTZ NOAA Radar

Pressure: 30.05 in
Humidity: 56%
Wind: North at 6.9 MPH (6 KT)
Dew Point: 18.0°F
Visibility: 10.00 mi


Airport Weather Forecast for KCTZ

Translated METAR and TAF for KCTZ
Translated METAR for KCTZ (0910 UTC 28 January 2015)
found at http://aviationweather.gov/adds/metars/
 
METAR text: KCTZ 280855Z AUTO 33005KT 10SM CLR M01/M08 A3007 RMK AO2 T10111076
Conditions at: KCTZ (CLINTON , NC, US) observed 0855 UTC 28 January 2015
Temperature: -1.1°C (30°F)
Dewpoint: -7.6°C (18°F) [RH = 61%]
Pressure (altimeter): 30.07 inches Hg (1018.4 mb)
Winds: from the NNW (330 degrees) at 6 MPH (5 knots; 2.6 m/s)
Visibility: 10 or more miles (16+ km)
Ceiling: at least 12,000 feet AGL
Clouds: sky clear below 12,000 feet AGL
Weather: automated observation with no human augmentation;
there may or may not be significant weather present at this time
Translated TAF for KCTZ

There is no translated TAF available for this airport

Find All Airport Services Find A Hotel Find A Rental Car Find A Golf Course Find A Restaurant $100 Hamburger



FBO's on the Field
FBO Company Facility Photos Services Transportation Aviation Fuel Prices: Prices include tax
Catering Weather Repair Courtesy Rental Type 100LL JetA JetA+ MOGAS 8087
 
Clinton Flying Service

This FBO has not yet been rated
FS:Shell
Last Updated: Dec-22
Login to update fuel prices
SS:
Contact Clinton Flying ServiceMore FBO Information
 
Add another FBO Facility Photos Catering Weather Repair Courtesy Rental Type 100LL JetA JetA+ MOGAS 8087
Services Transportation Aviation Fuel Prices: Prices include tax


model-print
model-print
model-print
model-print